Time;durP1;ratioP1;P1;durP2;ratioP2;P2;SDS_P1;SDS_P2;PMS_P1;PMS_P2;Temp;Humidity;BMP_temperature;BMP_pressure;BME280_temperature;BME280_humidity;BME280_pressure;Samples;Min_cycle;Max_cycle;Signal;HPM_P1;HPM_P2
2021/08/04 00:00:26;;;;;;;3.45;1.13;;;;;;;16.42;74.77;99641.72;2163868;41;20112;-81
2021/08/04 00:01:58;;;;;;;4.90;1.25;;;;;;;16.42;75.13;99641.72;2181827;41;20040;-82
2021/08/04 00:03:29;;;;;;;2.75;0.90;;;;;;;16.41;74.90;99635.47;2182642;41;20044;-84
2021/08/04 00:05:00;;;;;;;2.85;1.27;;;;;;;16.38;74.94;99638.59;2181911;41;20039;-84
2021/08/04 00:06:32;;;;;;;6.28;1.10;;;;;;;16.40;75.23;99643.78;2182886;41;20047;-83
2021/08/04 00:08:04;;;;;;;3.90;1.20;;;;;;;16.39;74.80;99645.63;2182454;41;20036;-83
2021/08/04 00:09:35;;;;;;;2.88;1.25;;;;;;;16.40;75.06;99652.69;2181996;41;20317;-84
2021/08/04 00:11:07;;;;;;;2.58;0.98;;;;;;;16.42;74.90;99641.72;2181998;41;20131;-84
2021/08/04 00:12:39;;;;;;;2.90;1.00;;;;;;;16.44;74.91;99647.75;2182687;41;20052;-84
2021/08/04 00:14:11;;;;;;;3.30;1.25;;;;;;;16.46;74.74;99651.94;2181901;41;20301;-84
2021/08/04 00:15:43;;;;;;;2.65;0.98;;;;;;;16.50;74.71;99649.69;2182914;41;20036;-84
2021/08/04 00:17:15;;;;;;;3.85;1.38;;;;;;;16.50;74.83;99644.28;2182048;41;20035;-83
2021/08/04 00:18:48;;;;;;;2.15;1.00;;;;;;;16.50;74.65;99647.81;2181934;41;20040;-83
2021/08/04 00:20:19;;;;;;;3.63;1.15;;;;;;;16.53;74.55;99649.31;2181702;41;20040;-84
2021/08/04 00:21:50;;;;;;;3.20;1.13;;;;;;;16.53;74.94;99650.13;2181867;41;20459;-85
2021/08/04 00:23:22;;;;;;;3.25;1.30;;;;;;;16.54;74.60;99650.97;2181514;41;20032;-85
2021/08/04 00:24:55;;;;;;;3.33;1.40;;;;;;;16.55;74.75;99647.22;2183255;41;20203;-83
2021/08/04 00:26:27;;;;;;;3.05;1.20;;;;;;;16.52;74.93;99648.47;2182757;41;20332;-83
2021/08/04 00:28:01;;;;;;;2.75;1.08;;;;;;;16.56;74.44;99642.69;2183358;41;20032;-85
2021/08/04 00:29:34;;;;;;;3.35;1.60;;;;;;;16.62;74.70;99645.47;2186224;40;20177;-80
2021/08/04 00:31:06;;;;;;;3.10;1.25;;;;;;;16.71;74.14;99650.72;2187999;40;20032;-83
2021/08/04 00:32:37;;;;;;;2.50;1.00;;;;;;;16.72;74.15;99641.59;2190942;40;20032;-80
2021/08/04 00:34:09;;;;;;;3.17;1.20;;;;;;;16.69;74.24;99643.63;2191539;40;20027;-79
2021/08/04 00:35:41;;;;;;;3.92;1.30;;;;;;;16.68;74.27;99644.66;2189881;40;20079;-81
2021/08/04 00:37:13;;;;;;;2.63;1.10;;;;;;;16.66;74.30;99641.31;2182331;41;20028;-84
2021/08/04 00:38:47;;;;;;;3.38;0.82;;;;;;;16.67;74.32;99634.06;2183443;41;20048;-85
2021/08/04 00:40:19;;;;;;;3.25;1.25;;;;;;;16.65;74.33;99634.25;2184514;41;20040;-85
2021/08/04 00:41:52;;;;;;;3.83;1.33;;;;;;;16.67;74.17;99628.69;2184477;41;20052;-84
2021/08/04 00:43:25;;;;;;;3.70;1.10;;;;;;;16.66;74.28;99630.53;2182292;41;20043;-84
2021/08/04 00:44:58;;;;;;;2.75;1.20;;;;;;;16.66;74.37;99630.53;2184112;41;20036;-85
2021/08/04 00:46:30;;;;;;;3.10;1.30;;;;;;;16.68;74.36;99624.91;2184425;41;20052;-82
2021/08/04 00:48:02;;;;;;;3.42;1.60;;;;;;;16.69;74.39;99624.75;2183788;40;20040;-83
2021/08/04 00:49:33;;;;;;;3.35;1.30;;;;;;;16.71;74.06;99629.13;2184307;41;20092;-82
2021/08/04 00:51:05;;;;;;;4.30;1.70;;;;;;;16.69;74.22;99622.06;2165882;41;20218;-83
2021/08/04 00:52:36;;;;;;;3.60;1.65;;;;;;;16.72;74.14;99617.31;2165969;41;20561;-83
2021/08/04 00:54:09;;;;;;;3.20;1.50;;;;;;;16.73;73.86;99624.34;2171468;41;20037;-83
2021/08/04 00:55:40;;;;;;;4.45;1.90;;;;;;;16.73;73.84;99627.03;2170076;41;20041;-82
2021/08/04 00:57:12;;;;;;;3.28;1.60;;;;;;;16.70;74.11;99628.28;2165249;41;20036;-82
2021/08/04 00:58:45;;;;;;;3.88;1.58;;;;;;;16.69;74.09;99626.59;2165034;41;20041;-83
2021/08/04 01:00:16;;;;;;;5.15;1.60;;;;;;;16.65;74.17;99631.56;2178080;41;20036;-82
2021/08/04 01:01:52;;;;;;;3.33;1.40;;;;;;;16.66;73.76;99627.81;2182505;41;20320;-84
2021/08/04 01:03:30;;;;;;;4.30;1.30;;;;;;;16.69;73.88;99635.53;2183986;41;20025;-82
2021/08/04 01:05:07;;;;;;;4.50;1.70;;;;;;;16.69;74.17;99635.53;2184412;41;20440;-82
2021/08/04 01:06:47;;;;;;;3.17;1.33;;;;;;;16.65;73.84;99633.44;2183796;41;20045;-80
2021/08/04 01:08:22;;;;;;;3.20;1.42;;;;;;;16.66;73.90;99624.31;2185709;40;20043;-81
2021/08/04 01:10:01;;;;;;;2.90;1.27;;;;;;;16.69;73.88;99623.91;2184264;40;20096;-84
2021/08/04 01:11:36;;;;;;;4.00;1.20;;;;;;;16.76;73.71;99627.50;2184990;40;20072;-81
2021/08/04 01:13:13;;;;;;;3.78;1.08;;;;;;;16.80;73.37;99625.25;2184880;40;20485;-81
2021/08/04 01:14:49;;;;;;;2.35;1.10;;;;;;;16.84;73.40;99621.97;2183031;41;20044;-85
2021/08/04 01:16:25;;;;;;;2.70;1.10;;;;;;;16.87;72.97;99625.28;2185066;40;20455;-81
2021/08/04 01:17:57;;;;;;;4.32;1.40;;;;;;;16.86;72.90;99618.22;2184893;40;20051;-84
2021/08/04 01:19:40;;;;;;;4.28;1.17;;;;;;;16.89;72.94;99618.66;2184461;41;20202;-83
2021/08/04 01:21:13;;;;;;;3.75;0.98;;;;;;;16.91;73.08;99621.16;2184890;40;20033;-84
2021/08/04 01:22:56;;;;;;;2.42;1.00;;;;;;;16.93;72.76;99619.09;2182744;40;20032;-84
2021/08/04 01:24:32;;;;;;;2.80;1.10;;;;;;;16.92;72.84;99620.97;2184390;40;20044;-82
2021/08/04 01:26:08;;;;;;;3.25;1.20;;;;;;;16.90;72.57;99620.34;2183083;41;20040;-86
2021/08/04 01:27:44;;;;;;;10.98;1.73;;;;;;;16.92;72.79;99625.53;2185185;40;20028;-83
2021/08/04 01:29:20;;;;;;;3.17;1.30;;;;;;;16.80;72.80;99623.38;2184967;40;20051;-82
2021/08/04 01:30:56;;;;;;;2.75;1.15;;;;;;;16.75;73.16;99617.75;2184392;41;20049;-83
2021/08/04 01:32:28;;;;;;;3.65;1.48;;;;;;;16.79;73.37;99612.78;2184290;41;20059;-83
2021/08/04 01:34:02;;;;;;;4.63;1.55;;;;;;;16.80;73.34;99622.53;2184076;41;20041;-83
2021/08/04 01:35:34;;;;;;;4.75;1.33;;;;;;;16.75;73.29;99624.97;2190456;40;20054;-84
2021/08/04 01:37:07;;;;;;;2.75;1.30;;;;;;;16.67;73.88;99620.59;2190132;40;20471;-82
2021/08/04 01:38:39;;;;;;;3.40;1.40;;;;;;;16.61;74.07;99629.44;2190446;40;20430;-82
2021/08/04 01:40:13;;;;;;;2.97;1.27;;;;;;;16.54;74.20;99632.06;2183970;41;20043;-82
2021/08/04 01:41:47;;;;;;;5.13;1.40;;;;;;;16.52;74.65;99620.66;2183484;40;20464;-80
2021/08/04 01:43:21;;;;;;;4.10;1.50;;;;;;;16.46;74.30;99627.66;2183291;41;20487;-83
2021/08/04 01:44:54;;;;;;;4.55;1.33;;;;;;;16.44;74.43;99623.47;2184349;40;20068;-82
2021/08/04 01:46:28;;;;;;;3.05;1.17;;;;;;;16.40;74.18;99622.19;2184542;40;20032;-82
2021/08/04 01:47:59;;;;;;;3.20;1.30;;;;;;;16.40;73.99;99619.50;2184484;41;20036;-83
2021/08/04 01:49:32;;;;;;;2.58;0.90;;;;;;;16.38;74.12;99612.44;2184517;40;20028;-82
2021/08/04 01:51:05;;;;;;;4.45;1.10;;;;;;;16.40;73.99;99620.31;2184390;41;20043;-83
2021/08/04 01:52:38;;;;;;;4.38;1.55;;;;;;;16.40;73.97;99620.31;2177569;41;20719;-83
2021/08/04 01:54:10;;;;;;;3.70;1.20;;;;;;;16.38;74.04;99612.44;2183672;40;20040;-84
2021/08/04 01:58:56;;;;;;;4.13;1.13;;;;;;;16.34;73.83;99616.53;2194648;40;20040;-79
2021/08/04 02:00:28;;;;;;;3.28;1.42;;;;;;;16.32;74.12;99624.00;2193959;40;20019;-80
2021/08/04 02:02:14;;;;;;;3.03;1.33;;;;;;;16.33;74.08;99617.59;2190114;40;20044;-79
2021/08/04 02:03:46;;;;;;;3.60;1.20;;;;;;;16.34;74.12;99618.41;2189337;40;20040;-79
2021/08/04 02:06:59;;;;;;;2.47;1.10;;;;;;;16.33;73.80;99619.44;2178355;41;19947;-79
2021/08/04 02:08:36;;;;;;;3.00;1.27;;;;;;;16.34;73.54;99621.09;2173541;41;20044;-79
2021/08/04 02:10:14;;;;;;;3.63;1.27;;;;;;;16.35;73.28;99622.78;2173596;41;20041;-80
2021/08/04 02:11:53;;;;;;;4.05;1.33;;;;;;;16.31;73.06;99611.53;2170250;41;20033;-79
2021/08/04 02:13:32;;;;;;;3.58;1.20;;;;;;;16.32;72.80;99615.91;2174287;41;20459;-80
2021/08/04 02:15:12;;;;;;;3.35;1.67;;;;;;;16.31;72.67;99616.09;2174524;41;20048;-79
2021/08/04 02:16:47;;;;;;;;;;;;;;;16.31;72.62;99619.63;2183029;40;20037;-80
2021/08/04 02:18:25;;;;;;;5.28;1.40;;;;;;;16.36;72.39;99627.16;2187453;40;19935;-79
2021/08/04 02:20:14;;;;;;;3.00;1.40;;;;;;;16.34;72.36;99618.41;2182056;40;20055;-80
2021/08/04 02:22:02;;;;;;;4.55;1.30;;;;;;;16.34;72.26;99630.03;2186731;40;20036;-79
2021/08/04 02:23:38;;;;;;;3.20;1.20;;;;;;;16.34;72.35;99630.03;2184986;40;20412;-79
2021/08/04 02:25:15;;;;;;;3.03;1.30;;;;;;;16.34;72.27;99623.81;2179684;41;20440;-80
2021/08/04 02:26:51;;;;;;;2.88;1.27;;;;;;;16.34;72.14;99621.09;2182082;40;20419;-79
2021/08/04 02:28:25;;;;;;;3.25;1.25;;;;;;;16.33;72.29;99627.53;2184152;40;20428;-78
2021/08/04 02:30:00;;;;;;;3.35;1.40;;;;;;;16.28;71.95;99617.31;2181201;40;20055;-79
2021/08/04 02:31:34;;;;;;;3.60;1.63;;;;;;;16.27;72.40;99617.53;2184922;40;20047;-80
2021/08/04 02:33:06;;;;;;;4.53;1.20;;;;;;;16.28;72.40;99616.50;2184570;40;20039;-79
2021/08/04 02:34:39;;;;;;;2.78;1.13;;;;;;;16.29;72.19;99616.28;2183481;40;20051;-79
2021/08/04 02:36:12;;;;;;;3.13;1.30;;;;;;;16.33;72.14;99611.34;2183379;40;20032;-79
2021/08/04 02:37:49;;;;;;;4.40;1.45;;;;;;;16.34;71.93;99608.44;2180482;41;20036;-78
2021/08/04 02:39:21;;;;;;;4.05;1.30;;;;;;;16.33;72.05;99611.34;2187594;40;20419;-80
2021/08/04 02:40:53;;;;;;;4.55;1.70;;;;;;;16.30;72.29;99609.88;2190613;40;20043;-80
2021/08/04 02:42:24;;;;;;;3.50;1.80;;;;;;;16.28;72.28;99603.84;2186604;40;20047;-80
2021/08/04 02:43:56;;;;;;;2.83;1.10;;;;;;;16.29;72.57;99602.00;2184424;41;20032;-80
2021/08/04 02:45:27;;;;;;;4.40;1.75;;;;;;;16.27;72.23;99609.44;2185582;40;20047;-80
2021/08/04 02:47:01;;;;;;;2.80;1.20;;;;;;;16.24;72.35;99599.88;2188775;40;20032;-80
2021/08/04 02:48:34;;;;;;;3.65;1.20;;;;;;;16.22;72.34;99600.03;2190452;40;20040;-79
2021/08/04 02:50:09;;;;;;;3.30;1.17;;;;;;;16.32;72.27;99604.28;2186083;40;20035;-79
2021/08/04 02:51:41;;;;;;;3.97;1.52;;;;;;;16.30;71.87;99601.78;2182264;40;20039;-80
2021/08/04 02:53:14;;;;;;;3.20;1.25;;;;;;;16.28;71.93;99603.84;2186334;40;20068;-78
2021/08/04 02:54:47;;;;;;;3.35;1.42;;;;;;;16.28;72.27;99601.13;2185539;40;20036;-79
2021/08/04 02:56:21;;;;;;;3.47;1.60;;;;;;;16.29;72.08;99608.19;2185298;40;20040;-80
2021/08/04 02:57:51;;;;;;;5.00;1.50;;;;;;;16.27;72.04;99607.56;2184931;40;20036;-79
2021/08/04 02:59:23;;;;;;;3.80;1.48;;;;;;;16.22;71.96;99601.91;2173802;41;20052;-80
2021/08/04 03:00:54;;;;;;;3.35;1.30;;;;;;;16.23;72.15;99608.97;2183836;41;20044;-80
2021/08/04 03:02:28;;;;;;;3.20;1.60;;;;;;;16.27;72.08;99604.84;2189827;40;20036;-80
2021/08/04 03:03:59;;;;;;;3.95;1.58;;;;;;;16.25;71.64;99606.91;2186572;40;20031;-81
2021/08/04 03:05:31;;;;;;;5.65;1.70;;;;;;;16.28;71.54;99603.00;2187535;40;20040;-81
2021/08/04 03:07:06;;;;;;;3.55;1.55;;;;;;;16.28;71.66;99601.13;2184101;40;20040;-80
2021/08/04 03:08:38;;;;;;;3.70;1.35;;;;;;;16.20;71.61;99615.56;2190243;40;20039;-80
2021/08/04 03:10:09;;;;;;;3.47;1.52;;;;;;;16.22;71.93;99612.69;2190355;40;20044;-80
2021/08/04 03:11:48;;;;;;;6.00;1.75;;;;;;;16.27;71.65;99610.25;2189942;40;20043;-80
2021/08/04 03:13:21;;;;;;;3.53;1.80;;;;;;;16.27;71.52;99610.25;2181470;41;20047;-78
2021/08/04 03:14:54;;;;;;;3.22;1.60;;;;;;;16.28;71.37;99606.53;2185920;40;20111;-78
2021/08/04 03:16:26;;;;;;;3.17;1.42;;;;;;;16.30;71.50;99612.56;2180117;41;20043;-79
2021/08/04 03:18:00;;;;;;;5.75;1.45;;;;;;;16.26;71.18;99608.56;2183389;40;20392;-79
2021/08/04 03:19:32;;;;;;;5.03;1.58;;;;;;;16.25;71.52;99612.28;2185310;40;20043;-79
2021/08/04 03:21:04;;;;;;;4.03;1.33;;;;;;;16.25;71.35;99611.47;2185925;40;20039;-78
2021/08/04 03:22:48;;;;;;;3.42;1.50;;;;;;;16.23;71.40;99598.19;2185911;40;20432;-79
2021/08/04 03:24:20;;;;;;;4.78;1.77;;;;;;;16.22;71.56;99610.00;2184691;40;20340;-79
2021/08/04 03:25:52;;;;;;;3.15;1.63;;;;;;;16.23;71.26;99608.97;2179636;41;20303;-79
2021/08/04 03:27:29;;;;;;;3.28;1.60;;;;;;;16.26;71.56;99615.84;2180968;40;20028;-80
2021/08/04 03:29:01;;;;;;;3.40;1.50;;;;;;;16.25;71.53;99609.59;2180201;41;20048;-79
2021/08/04 03:30:33;;;;;;;4.35;1.80;;;;;;;16.28;71.45;99609.22;2179528;41;20048;-78
2021/08/04 03:32:06;;;;;;;3.75;1.52;;;;;;;16.28;71.56;99613.81;2185505;40;20032;-78
2021/08/04 03:33:38;;;;;;;3.45;1.80;;;;;;;16.30;71.18;99617.13;2185785;40;20036;-79
2021/08/04 03:35:11;;;;;;;2.83;1.30;;;;;;;16.29;71.45;99604.69;2179825;40;20039;-80
2021/08/04 03:36:51;;;;;;;3.83;1.40;;;;;;;16.30;71.11;99601.78;2179845;41;20043;-79
2021/08/04 03:38:23;;;;;;;2.78;1.20;;;;;;;16.32;71.20;99605.13;2183731;40;20316;-78
2021/08/04 03:39:53;;;;;;;6.38;1.65;;;;;;;16.31;71.31;99608.84;2179929;40;20048;-79
2021/08/04 03:41:25;;;;;;;3.85;1.30;;;;;;;16.33;71.20;99605.94;2183984;40;20067;-79
2021/08/04 03:42:57;;;;;;;3.22;1.50;;;;;;;16.37;71.30;99607.25;2185335;40;20282;-79
2021/08/04 03:44:29;;;;;;;4.40;1.80;;;;;;;16.41;71.11;99610.38;2171479;41;20047;-79
2021/08/04 03:46:01;;;;;;;4.88;1.60;;;;;;;16.41;71.07;99599.59;2184627;40;20044;-79
2021/08/04 03:47:33;;;;;;;3.53;1.70;;;;;;;16.42;71.09;99607.50;2182376;40;20036;-79
2021/08/04 03:49:06;;;;;;;2.78;1.13;;;;;;;16.50;71.07;99609.22;2185910;40;20066;-79
2021/08/04 03:50:38;;;;;;;4.05;1.65;;;;;;;16.51;70.85;99608.19;2180797;40;20047;-80
2021/08/04 03:52:10;;;;;;;3.13;1.40;;;;;;;16.51;70.82;99605.50;2185436;40;20038;-79
2021/08/04 03:53:40;;;;;;;4.07;1.88;;;;;;;16.47;70.98;99609.59;2182177;40;20040;-79
2021/08/04 03:55:13;;;;;;;3.65;1.30;;;;;;;16.46;70.85;99600.69;2179329;41;20056;-80
2021/08/04 03:56:44;;;;;;;3.45;1.52;;;;;;;16.48;70.97;99600.47;2180990;40;20047;-80
2021/08/04 03:58:15;;;;;;;4.38;1.58;;;;;;;16.47;70.91;99606.91;2179084;41;20055;-79
2021/08/04 03:59:47;;;;;;;7.15;1.48;;;;;;;16.48;71.06;99605.88;2183249;40;20035;-78
2021/08/04 04:01:19;;;;;;;3.22;1.23;;;;;;;16.47;71.08;99606.91;2179534;41;20047;-79
2021/08/04 04:02:52;;;;;;;3.80;1.58;;;;;;;16.45;71.23;99606.25;2179774;41;20140;-79
2021/08/04 04:04:33;;;;;;;3.75;1.55;;;;;;;16.45;71.10;99614.34;2179130;41;20442;-79
2021/08/04 04:06:04;;;;;;;3.55;1.50;;;;;;;16.43;71.16;99611.03;2180266;40;20052;-79
2021/08/04 04:07:38;;;;;;;5.07;1.40;;;;;;;16.42;71.14;99615.56;2179869;40;20048;-79
2021/08/04 04:09:10;;;;;;;3.38;1.40;;;;;;;16.38;71.05;99611.63;2179362;41;20048;-78
2021/08/04 04:10:47;;;;;;;4.70;1.40;;;;;;;16.36;71.11;99611.78;2178148;40;20078;-80
2021/08/04 04:12:19;;;;;;;5.55;2.08;;;;;;;16.36;71.08;99608.28;2179377;41;20048;-79
2021/08/04 04:13:52;;;;;;;2.70;1.23;;;;;;;16.35;71.39;99609.28;2184172;40;20036;-80
2021/08/04 04:15:23;;;;;;;3.63;1.55;;;;;;;16.35;71.28;99614.69;2184905;40;20055;-79
2021/08/04 04:17:05;;;;;;;3.70;1.80;;;;;;;16.30;71.25;99604.47;2183104;40;20400;-80
2021/08/04 04:18:37;;;;;;;3.35;1.48;;;;;;;16.30;71.60;99617.13;2180726;40;20040;-79
2021/08/04 04:20:12;;;;;;;3.42;1.40;;;;;;;16.31;71.48;99614.25;2182568;40;20040;-77
2021/08/04 04:21:44;;;;;;;4.55;1.55;;;;;;;16.31;71.55;99613.41;2185151;40;20039;-79
2021/08/04 04:23:16;;;;;;;6.40;2.00;;;;;;;16.33;71.44;99605.94;2184105;40;20047;-79
2021/08/04 04:24:47;;;;;;;4.38;1.60;;;;;;;16.34;71.49;99613.84;2185138;40;20036;-79
2021/08/04 04:26:19;;;;;;;3.35;1.60;;;;;;;16.38;71.26;99604.34;2184984;40;20055;-79
2021/08/04 04:27:50;;;;;;;3.95;1.67;;;;;;;16.39;71.45;99610.56;2185127;40;20300;-79
2021/08/04 04:29:22;;;;;;;6.10;1.92;;;;;;;16.36;71.13;99610.97;2180646;40;20040;-78
2021/08/04 04:30:55;;;;;;;3.55;1.67;;;;;;;16.34;71.29;99613.84;2179100;41;20036;-79
2021/08/04 04:32:27;;;;;;;3.67;1.33;;;;;;;16.33;71.51;99614.91;2180520;40;20479;-79
2021/08/04 04:33:59;;;;;;;4.03;1.77;;;;;;;16.32;71.42;99615.06;2179858;40;20043;-79
2021/08/04 04:35:32;;;;;;;8.70;2.45;;;;;;;16.32;71.65;99618.63;2179378;40;20047;-79
2021/08/04 04:37:06;;;;;;;4.68;1.77;;;;;;;16.32;71.59;99626.72;2179086;41;20401;-80
2021/08/04 04:38:40;;;;;;;4.70;1.63;;;;;;;16.32;71.44;99621.31;2180802;40;20047;-78
2021/08/04 04:40:12;;;;;;;4.95;1.85;;;;;;;16.29;71.73;99618.16;2184499;40;20047;-79
2021/08/04 04:41:44;;;;;;;3.75;1.40;;;;;;;16.26;72.08;99621.25;2184765;40;20046;-79
2021/08/04 04:43:16;;;;;;;3.50;1.67;;;;;;;16.27;72.06;99622.91;2184677;40;20043;-79
2021/08/04 04:44:47;;;;;;;3.80;1.80;;;;;;;16.27;72.11;99620.22;2179881;40;20047;-79
2021/08/04 04:46:18;;;;;;;3.72;1.73;;;;;;;16.27;71.97;99626.44;2184906;40;20044;-80
2021/08/04 04:47:49;;;;;;;3.70;1.95;;;;;;;16.29;72.02;99626.25;2185163;40;20408;-80
2021/08/04 04:49:21;;;;;;;3.42;1.38;;;;;;;16.28;72.07;99625.41;2183615;40;20051;-79
2021/08/04 04:50:54;;;;;;;3.60;1.52;;;;;;;16.30;72.02;99626.06;2185236;40;20039;-79
2021/08/04 04:52:28;;;;;;;3.63;1.50;;;;;;;16.30;72.33;99625.22;2182147;40;20090;-79
2021/08/04 04:54:07;;;;;;;4.32;1.40;;;;;;;16.30;72.16;99631.44;2179052;41;20029;-79
2021/08/04 04:55:38;;;;;;;3.33;1.40;;;;;;;16.28;72.01;99635.38;2180658;40;20055;-79
2021/08/04 04:57:09;;;;;;;6.57;2.00;;;;;;;16.26;72.28;99638.25;2184595;40;20036;-79
2021/08/04 04:58:41;;;;;;;5.72;1.65;;;;;;;16.26;72.17;99643.63;2184207;40;20036;-79
2021/08/04 05:00:12;;;;;;;3.40;1.50;;;;;;;16.27;72.28;99634.53;2184637;40;20039;-78
2021/08/04 05:01:46;;;;;;;4.25;1.55;;;;;;;16.27;72.33;99639.91;2184746;40;20040;-78
2021/08/04 05:03:20;;;;;;;2.90;1.20;;;;;;;16.29;71.95;99637.03;2184979;40;20323;-78
2021/08/04 05:04:52;;;;;;;3.55;1.65;;;;;;;16.31;72.22;99634.97;2180299;40;20079;-79
2021/08/04 05:06:25;;;;;;;3.70;1.65;;;;;;;16.29;72.26;99634.34;2180969;40;20059;-78
2021/08/04 05:07:57;;;;;;;3.17;1.35;;;;;;;16.30;72.06;99639.53;2180069;40;20087;-79
2021/08/04 05:09:28;;;;;;;4.88;1.75;;;;;;;16.30;71.94;99644.09;2180637;40;20036;-81
2021/08/04 05:11:00;;;;;;;4.35;1.58;;;;;;;16.29;72.08;99637.03;2180955;40;20039;-80
2021/08/04 05:12:32;;;;;;;3.90;1.58;;;;;;;16.30;72.12;99639.53;2186539;40;20388;-79
2021/08/04 05:14:06;;;;;;;4.53;1.40;;;;;;;16.33;72.08;99647.25;2186754;40;20035;-79
2021/08/04 05:15:37;;;;;;;4.65;1.70;;;;;;;16.40;71.78;99646.47;2181805;40;20067;-80
2021/08/04 05:17:12;;;;;;;5.10;2.22;;;;;;;16.45;71.79;99638.63;2180202;41;20051;-79
2021/08/04 05:18:44;;;;;;;5.22;1.50;;;;;;;16.48;71.61;99646.34;2179963;41;20063;-78
2021/08/04 05:20:16;;;;;;;3.65;1.90;;;;;;;16.51;71.26;99645.97;2180593;41;20036;-79
2021/08/04 05:21:49;;;;;;;3.40;1.40;;;;;;;16.50;71.21;99652.38;2184156;40;20044;-79
2021/08/04 05:23:21;;;;;;;4.05;1.65;;;;;;;16.50;70.95;99652.38;2184645;40;20036;-79
2021/08/04 05:24:52;;;;;;;4.32;1.75;;;;;;;16.47;70.28;99647.38;2181034;40;20036;-79
2021/08/04 05:26:24;;;;;;;3.53;1.50;;;;;;;16.46;70.35;99648.41;2178833;41;20040;-79
2021/08/04 05:28:05;;;;;;;5.75;1.75;;;;;;;16.50;70.33;99647.00;2179558;40;20048;-78
2021/08/04 05:29:37;;;;;;;3.58;1.48;;;;;;;16.51;70.12;99652.19;2179103;41;20040;-80
2021/08/04 05:31:09;;;;;;;3.50;1.67;;;;;;;16.55;69.83;99652.63;2182228;40;20036;-79
2021/08/04 05:32:47;;;;;;;3.25;1.60;;;;;;;16.55;69.50;99649.94;2185237;40;20043;-79
2021/08/04 05:34:19;;;;;;;5.43;1.63;;;;;;;16.52;69.80;99648.47;2180759;40;20032;-79
2021/08/04 05:35:51;;;;;;;3.78;1.67;;;;;;;16.48;69.62;99654.44;2177127;41;20036;-80
2021/08/04 05:37:26;;;;;;;4.65;1.60;;;;;;;16.45;69.74;99647.56;2182664;40;20365;-78
2021/08/04 05:38:58;;;;;;;3.63;1.50;;;;;;;16.49;69.67;99658.81;2183211;40;20036;-78
2021/08/04 05:40:30;;;;;;;4.10;1.55;;;;;;;16.55;69.73;99659.91;2178197;40;20048;-78
2021/08/04 05:42:01;;;;;;;4.32;2.40;;;;;;;16.60;69.31;99657.44;2179197;41;20040;-79
2021/08/04 05:43:33;;;;;;;7.63;2.70;;;;;;;16.59;69.44;99653.94;2178734;40;20035;-78
2021/08/04 05:45:17;;;;;;;3.50;1.80;;;;;;;16.57;69.12;99650.59;2181438;40;20039;-78
2021/08/04 05:46:47;;;;;;;5.13;1.85;;;;;;;16.58;69.17;99654.13;2180448;40;20040;-79
2021/08/04 05:48:19;;;;;;;3.75;1.50;;;;;;;16.60;69.16;99652.03;2185355;40;20333;-78
2021/08/04 05:49:53;;;;;;;4.28;1.77;;;;;;;16.64;69.20;99646.06;2184995;40;20420;-80
2021/08/04 05:51:25;;;;;;;5.57;1.90;;;;;;;16.75;69.10;99639.34;2179649;41;20032;-80
2021/08/04 05:53:01;;;;;;;4.55;1.90;;;;;;;16.76;68.61;99634.75;2181591;40;20411;-79
2021/08/04 05:54:39;;;;;;;4.18;1.55;;;;;;;16.78;69.04;99643.50;2179352;41;20044;-78
2021/08/04 05:56:11;;;;;;;4.40;1.90;;;;;;;16.83;68.86;99643.72;2179393;41;20036;-78
2021/08/04 05:57:47;;;;;;;5.60;2.05;;;;;;;16.82;68.62;99642.91;2184540;40;20043;-79
2021/08/04 05:59:24;;;;;;;4.53;1.90;;;;;;;16.78;68.51;99644.31;2183983;40;20040;-78
2021/08/04 06:00:56;;;;;;;3.50;1.70;;;;;;;16.80;68.82;99652.25;2183833;40;20056;-79
2021/08/04 06:02:28;;;;;;;3.72;1.58;;;;;;;16.80;68.86;99642.25;2184466;40;20036;-79
2021/08/04 06:03:59;;;;;;;4.43;1.58;;;;;;;16.88;68.86;99645.84;2184103;40;20070;-79
2021/08/04 06:05:31;;;;;;;4.05;1.90;;;;;;;16.95;68.32;99646.78;2184179;40;20036;-79
2021/08/04 06:07:04;;;;;;;4.13;1.73;;;;;;;16.92;68.30;99645.25;2179753;40;20451;-79
2021/08/04 06:08:37;;;;;;;5.45;2.00;;;;;;;16.88;68.46;99649.41;2178673;41;20043;-78
2021/08/04 06:10:10;;;;;;;3.65;1.67;;;;;;;16.84;68.70;99650.81;2182455;40;20032;-78
2021/08/04 06:11:42;;;;;;;3.83;1.70;;;;;;;16.84;68.57;99640.00;2185632;40;20048;-79
2021/08/04 06:13:14;;;;;;;5.43;1.98;;;;;;;16.91;68.45;99637.34;2185573;40;20036;-78
2021/08/04 06:14:45;;;;;;;5.68;1.75;;;;;;;16.91;68.66;99640.88;2179682;40;20035;-79
2021/08/04 06:16:16;;;;;;;6.43;1.77;;;;;;;16.93;68.64;99648.81;2180314;40;20061;-80
2021/08/04 06:17:48;;;;;;;3.72;1.80;;;;;;;16.99;68.25;99643.50;2179933;41;20263;-79
2021/08/04 06:19:20;;;;;;;3.40;1.60;;;;;;;16.97;68.08;99644.69;2179012;41;20036;-79
2021/08/04 06:20:51;;;;;;;4.03;1.92;;;;;;;16.98;68.05;99647.22;2179481;41;20040;-79
2021/08/04 06:22:22;;;;;;;3.50;1.65;;;;;;;16.99;68.17;99648.91;2179247;40;20068;-78
2021/08/04 06:23:55;;;;;;;3.88;1.90;;;;;;;16.97;68.29;99645.56;2184988;40;20039;-79
2021/08/04 06:25:27;;;;;;;4.18;1.90;;;;;;;16.94;68.36;99648.63;2184483;40;20123;-78
2021/08/04 06:26:59;;;;;;;4.75;1.80;;;;;;;16.89;68.40;99642.13;2178868;41;20396;-79
2021/08/04 06:28:30;;;;;;;3.60;1.67;;;;;;;16.88;68.76;99651.25;2180093;40;20041;-79
2021/08/04 06:30:05;;;;;;;4.38;1.73;;;;;;;16.94;68.42;99643.22;2179830;40;20059;-79
2021/08/04 06:31:37;;;;;;;3.70;1.75;;;;;;;17.06;68.46;99637.28;2179293;41;20067;-79
2021/08/04 06:33:09;;;;;;;5.13;1.95;;;;;;;17.11;67.52;99637.53;2179438;40;20043;-79
2021/08/04 06:34:40;;;;;;;3.10;1.50;;;;;;;17.06;67.38;99640.00;2179277;41;20040;-79
2021/08/04 06:36:12;;;;;;;4.00;1.98;;;;;;;17.05;67.63;99641.84;2179273;40;20044;-79
2021/08/04 06:37:44;;;;;;;3.72;1.65;;;;;;;17.03;67.86;99643.94;2178942;40;20033;-79
2021/08/04 06:39:16;;;;;;;3.55;1.30;;;;;;;17.06;67.80;99648.09;2178731;40;20043;-79
2021/08/04 06:40:48;;;;;;;3.88;1.88;;;;;;;17.07;67.77;99647.06;2173248;41;20045;-79
2021/08/04 06:42:19;;;;;;;4.03;1.80;;;;;;;17.09;68.01;99650.41;2180048;40;20044;-78
2021/08/04 06:43:51;;;;;;;6.00;1.67;;;;;;;17.12;67.82;99652.69;2179235;40;20068;-79
2021/08/04 06:45:22;;;;;;;5.53;1.83;;;;;;;17.23;67.37;99654.84;2181102;40;20035;-79
2021/08/04 06:46:58;;;;;;;4.53;1.80;;;;;;;17.31;67.43;99649.28;2179446;41;20044;-80
2021/08/04 06:48:31;;;;;;;4.30;1.67;;;;;;;17.40;67.21;99649.13;2179252;40;20052;-79
2021/08/04 06:50:02;;;;;;;4.18;1.80;;;;;;;17.39;66.95;99647.47;2179949;40;20040;-79
2021/08/04 06:51:34;;;;;;;3.88;1.73;;;;;;;17.37;66.79;99660.34;2180045;40;20043;-79
2021/08/04 06:53:07;;;;;;;4.80;1.83;;;;;;;17.38;66.84;99657.44;2179315;41;20052;-78
2021/08/04 06:54:39;;;;;;;5.18;1.88;;;;;;;17.49;66.45;99653.34;2181604;40;20065;-79
2021/08/04 06:56:12;;;;;;;5.93;1.92;;;;;;;17.49;66.46;99653.34;2178844;40;20330;-79
2021/08/04 06:57:43;;;;;;;3.78;1.73;;;;;;;17.42;66.00;99658.72;2178971;41;20052;-79
2021/08/04 06:59:17;;;;;;;4.00;1.90;;;;;;;17.35;66.37;99654.31;2179835;40;20044;-79
2021/08/04 07:00:49;;;;;;;3.65;1.67;;;;;;;17.35;66.43;99651.59;2180402;40;20074;-79
2021/08/04 07:02:21;;;;;;;4.45;2.22;;;;;;;17.37;66.28;99650.38;2177299;40;20036;-78
2021/08/04 07:03:53;;;;;;;5.47;1.80;;;;;;;17.56;66.05;99648.81;2179998;40;20040;-79
2021/08/04 07:05:25;;;;;;;4.28;1.90;;;;;;;17.74;65.61;99644.75;2180682;40;20056;-79
2021/08/04 07:06:59;;;;;;;7.45;1.60;;;;;;;17.84;65.12;99650.59;2183181;40;20338;-78
2021/08/04 07:08:31;;;;;;;4.18;1.80;;;;;;;17.89;64.89;99642.72;2179548;40;20424;-78
2021/08/04 07:10:06;;;;;;;4.65;2.00;;;;;;;18.01;64.52;99642.16;2180566;40;20043;-79
2021/08/04 07:11:36;;;;;;;5.28;2.13;;;;;;;18.03;64.31;99640.09;2181602;40;20036;-78
2021/08/04 07:13:08;;;;;;;3.67;1.90;;;;;;;17.98;64.45;99650.66;2179140;41;20036;-79
2021/08/04 07:14:40;;;;;;;3.58;1.75;;;;;;;18.08;63.91;99651.97;2180366;40;20432;-79
2021/08/04 07:16:12;;;;;;;5.20;1.90;;;;;;;18.14;63.89;99650.28;2178564;41;20048;-79
2021/08/04 07:17:45;;;;;;;6.63;2.22;;;;;;;18.21;63.63;99651.16;2183375;40;20213;-79
2021/08/04 07:19:17;;;;;;;3.63;1.90;;;;;;;18.21;63.47;99645.75;2184886;40;20109;-79
2021/08/04 07:20:51;;;;;;;6.93;2.20;;;;;;;18.27;63.13;99646.81;2180838;40;20059;-79
2021/08/04 07:22:23;;;;;;;3.95;2.03;;;;;;;18.43;62.75;99648.25;2179469;40;20060;-79
2021/08/04 07:23:55;;;;;;;3.35;1.52;;;;;;;18.58;62.49;99645.38;2181058;40;20028;-78